Time;durP1;ratioP1;P1;durP2;ratioP2;P2;SDS_P1;SDS_P2;PMS_P1;PMS_P2;Temp;Humidity;BMP_temperature;BMP_pressure;BME280_temperature;BME280_humidity;BME280_pressure;Samples;Min_cycle;Max_cycle;Signal;HPM_P1;HPM_P2
2022/09/24 00:00:56;;;;;;;;;;;7.70;99.90;;;;;;5053123;28;20112;-84
2022/09/24 00:03:23;;;;;;;;;;;7.70;99.90;;;;;;5053264;28;19909;-85
2022/09/24 00:05:50;;;;;;;;;;;7.60;99.90;;;;;;5053216;28;20007;-85
2022/09/24 00:08:16;;;;;;;12.80;6.60;;;7.60;99.90;;;;;;5052705;28;20385;-85
2022/09/24 00:10:45;;;;;;;10.50;7.03;;;7.60;99.90;;;;;;5052585;28;20247;-85
2022/09/24 00:13:13;;;;;;;11.63;6.57;;;7.50;99.90;;;;;;5052654;28;20028;-85
2022/09/24 00:15:42;;;;;;;12.98;7.95;;;7.50;99.90;;;;;;5052431;28;20033;-84
2022/09/24 00:18:09;;;;;;;10.10;6.60;;;7.40;99.90;;;;;;5052359;28;20115;-85
2022/09/24 00:20:35;;;;;;;9.45;6.50;;;7.40;99.90;;;;;;5052081;28;20025;-84
2022/09/24 00:23:00;;;;;;;;;;;7.40;99.90;;;;;;5052809;28;20116;-84
2022/09/24 00:28:12;;;;;;;8.02;4.38;;;7.40;99.90;;;;;;5053978;28;20036;-85
2022/09/24 00:30:40;;;;;;;9.52;5.13;;;7.40;99.90;;;;;;5052170;28;20446;-84
2022/09/24 00:33:06;;;;;;;9.23;4.70;;;7.40;99.90;;;;;;5052649;28;20032;-84
2022/09/24 00:35:32;;;;;;;;;;;7.30;99.90;;;;;;5052668;28;20393;-84
2022/09/24 00:37:58;;;;;;;7.70;4.55;;;7.30;99.90;;;;;;5051411;28;20710;-84
2022/09/24 00:40:30;;;;;;;;;;;7.30;99.90;;;;;;5051911;28;20068;-84
2022/09/24 00:42:55;;;;;;;9.05;4.22;;;7.30;99.90;;;;;;5051611;28;20284;-84
2022/09/24 00:45:22;;;;;;;;;;;7.30;99.90;;;;;;5051966;28;20124;-84
2022/09/24 00:47:48;;;;;;;5.50;3.67;;;7.30;99.90;;;;;;5051011;28;19905;-84
2022/09/24 00:50:34;;;;;;;5.38;3.60;;;7.30;99.90;;;;;;5055350;28;20083;-85
2022/09/24 00:53:11;;;;;;;5.78;4.05;;;7.20;99.90;;;;;;5064425;28;20049;-85
2022/09/24 00:55:38;;;;;;;7.38;4.10;;;7.30;99.90;;;;;;5058615;28;20032;-84
2022/09/24 00:58:06;;;;;;;8.23;3.95;;;7.30;99.90;;;;;;5051964;28;20351;-84
2022/09/24 01:00:35;;;;;;;6.45;4.70;;;7.30;99.90;;;;;;5049005;28;20127;-84
2022/09/24 01:03:11;;;;;;;5.80;4.25;;;7.20;99.90;;;;;;5051444;28;20056;-83
2022/09/24 01:05:38;;;;;;;4.60;3.35;;;7.20;99.90;;;;;;5045090;28;20112;-84
2022/09/24 01:08:05;;;;;;;6.53;4.05;;;7.30;99.90;;;;;;5050670;28;20045;-83
2022/09/24 01:10:50;;;;;;;8.32;5.05;;;7.30;99.90;;;;;;5050199;28;20143;-83
2022/09/24 01:13:21;;;;;;;15.85;5.88;;;7.20;99.90;;;;;;5050726;28;20473;-84
2022/09/24 01:15:57;;;;;;;8.80;5.38;;;7.20;99.90;;;;;;5050945;28;20029;-83
2022/09/24 01:18:39;;;;;;;8.35;4.85;;;7.20;99.90;;;;;;5048384;28;20491;-85
2022/09/24 01:21:37;;;;;;;6.65;3.83;;;7.30;99.90;;;;;;5046090;28;20551;-83
2022/09/24 01:24:44;;;;;;;7.75;4.10;;;7.30;99.90;;;;;;5050392;28;20410;-84
2022/09/24 01:27:21;;;;;;;8.80;5.00;;;7.30;99.90;;;;;;5011925;28;20040;-82
2022/09/24 01:30:11;;;;;;;6.90;4.32;;;7.30;99.90;;;;;;5043896;28;20504;-83
2022/09/24 01:32:56;;;;;;;4.40;3.25;;;7.40;99.90;;;;;;5049970;28;20107;-83
2022/09/24 01:35:36;;;;;;;7.05;3.55;;;7.30;99.90;;;;;;5051270;28;20040;-83
2022/09/24 01:38:09;;;;;;;12.75;5.43;;;7.40;99.90;;;;;;5050199;28;20021;-83
2022/09/24 01:40:37;;;;;;;5.82;3.53;;;7.30;99.90;;;;;;5050108;28;20024;-83
2022/09/24 01:43:04;;;;;;;7.43;3.95;;;7.30;99.90;;;;;;5050364;28;20115;-84
2022/09/24 01:45:31;;;;;;;8.57;4.05;;;7.30;99.90;;;;;;5046990;28;20064;-83
2022/09/24 01:48:00;;;;;;;8.65;4.43;;;7.30;99.90;;;;;;5049802;28;20075;-81
2022/09/24 01:50:31;;;;;;;8.00;4.82;;;7.20;99.90;;;;;;5049888;28;20490;-83
2022/09/24 01:53:01;;;;;;;9.00;5.10;;;7.20;99.90;;;;;;5050257;28;20032;-83
2022/09/24 01:55:32;;;;;;;6.72;4.90;;;7.20;99.90;;;;;;5050474;28;20025;-83
2022/09/24 01:58:09;;;;;;;15.15;5.30;;;7.10;99.90;;;;;;5049873;28;20079;-83
2022/09/24 02:00:39;;;;;;;8.57;4.43;;;7.10;99.90;;;;;;5046401;28;20521;-83
2022/09/24 02:03:11;;;;;;;12.18;4.75;;;7.10;99.90;;;;;;5049931;28;20028;-84
2022/09/24 02:05:45;;;;;;;7.07;4.20;;;7.10;99.90;;;;;;5043730;28;20112;-84
2022/09/24 02:08:13;;;;;;;6.65;4.15;;;7.10;99.90;;;;;;5050658;28;20033;-84
2022/09/24 02:11:01;;;;;;;9.05;4.70;;;7.10;99.90;;;;;;5049449;28;20040;-83
2022/09/24 02:13:35;;;;;;;8.32;4.47;;;7.10;99.90;;;;;;5049884;28;20120;-83
2022/09/24 02:16:04;;;;;;;12.30;5.60;;;7.10;99.90;;;;;;5049557;28;20060;-83
2022/09/24 02:18:35;;;;;;;13.02;7.25;;;7.10;99.90;;;;;;5049239;28;20021;-83
2022/09/24 02:21:06;;;;;;;13.60;7.10;;;7.10;99.90;;;;;;5049301;28;20400;-83
2022/09/24 02:23:36;;;;;;;13.70;7.20;;;7.10;99.90;;;;;;5053146;28;20128;-83
2022/09/24 02:26:04;;;;;;;9.95;4.88;;;7.10;99.90;;;;;;5053667;28;20025;-83
2022/09/24 02:28:31;;;;;;;11.48;4.80;;;7.10;99.90;;;;;;5053383;28;20024;-83
2022/09/24 02:31:07;;;;;;;7.70;4.28;;;7.00;99.90;;;;;;5053446;28;20441;-83
2022/09/24 02:36:19;;;;;;;8.00;3.80;;;7.00;99.90;;;;;;5054890;28;20047;-83
2022/09/24 02:38:47;;;;;;;;;;;7.00;99.90;;;;;;5054659;28;20017;-84
2022/09/24 02:41:13;;;;;;;6.45;4.28;;;7.00;99.90;;;;;;5053214;28;19912;-83
2022/09/24 02:43:39;;;;;;;7.32;4.95;;;7.00;99.90;;;;;;5053035;28;20029;-82
2022/09/24 02:46:08;;;;;;;10.23;4.57;;;6.90;99.90;;;;;;5065402;28;20033;-83
2022/09/24 02:48:35;;;;;;;6.70;4.00;;;6.90;99.90;;;;;;5073054;28;20115;-82
2022/09/24 02:51:03;;;;;;;7.82;4.40;;;6.90;99.90;;;;;;5073036;28;20044;-83
2022/09/24 02:53:29;;;;;;;10.10;5.88;;;6.90;99.90;;;;;;5065315;28;20047;-83
2022/09/24 02:55:55;;;;;;;13.18;6.70;;;6.90;99.90;;;;;;5053090;28;20090;-83
2022/09/24 02:58:20;;;;;;;;;;;6.90;99.90;;;;;;5053745;28;20521;-82
2022/09/24 03:00:46;;;;;;;12.93;5.03;;;6.90;99.90;;;;;;5053855;28;20372;-83
2022/09/24 03:03:11;;;;;;;8.43;4.70;;;6.80;99.90;;;;;;5052677;28;20032;-83
2022/09/24 03:05:37;;;;;;;;;;;6.80;99.90;;;;;;5052655;28;20383;-82
2022/09/24 03:08:03;;;;;;;5.82;3.60;;;6.80;99.90;;;;;;5052565;28;19919;-83
2022/09/24 03:10:28;;;;;;;;;;;6.80;99.90;;;;;;5052847;28;20473;-82
2022/09/24 03:12:55;;;;;;;7.38;3.95;;;6.80;99.90;;;;;;5054270;28;19909;-82
2022/09/24 03:15:21;;;;;;;6.80;4.50;;;6.80;99.90;;;;;;5056909;28;20036;-82
2022/09/24 03:17:46;;;;;;;;;;;6.70;99.90;;;;;;5054630;28;20473;-83
2022/09/24 03:20:12;;;;;;;10.50;5.38;;;6.70;99.90;;;;;;5052439;28;19908;-83
2022/09/24 03:22:37;;;;;;;;;;;6.70;99.90;;;;;;5052896;28;20044;-83
2022/09/24 03:25:03;;;;;;;9.15;4.78;;;6.60;99.90;;;;;;5052327;28;19904;-83
2022/09/24 03:27:29;;;;;;;6.40;4.20;;;6.60;99.90;;;;;;5050151;28;20405;-82
2022/09/24 03:32:39;;;;;;;7.68;4.68;;;6.60;99.90;;;;;;5053071;28;19912;-82
2022/09/24 03:35:05;;;;;;;;;;;6.60;99.90;;;;;;5052335;28;20025;-81
2022/09/24 03:37:32;;;;;;;11.75;4.82;;;6.60;99.90;;;;;;5051979;28;19916;-82
2022/09/24 03:39:58;;;;;;;7.85;4.82;;;6.50;99.90;;;;;;5053181;28;20033;-82
2022/09/24 03:42:23;;;;;;;;;;;6.50;99.90;;;;;;5055150;28;20025;-83
2022/09/24 03:44:49;;;;;;;12.00;5.97;;;6.50;99.90;;;;;;5057516;28;19911;-83
2022/09/24 03:47:14;;;;;;;;;;;6.40;99.90;;;;;;5054706;28;20508;-82
2022/09/24 03:49:41;;;;;;;12.68;7.25;;;6.40;99.90;;;;;;5053134;28;20300;-82
2022/09/24 03:52:06;;;;;;;15.82;7.80;;;6.40;99.90;;;;;;5051872;28;20029;-83
2022/09/24 03:54:32;;;;;;;;;;;6.30;99.90;;;;;;5051818;28;20032;-82
2022/09/24 03:56:58;;;;;;;13.27;7.78;;;6.30;99.90;;;;;;5051675;28;19905;-82
2022/09/24 03:59:23;;;;;;;;;;;6.40;99.90;;;;;;5052241;28;20650;-83
2022/09/24 04:01:49;;;;;;;9.30;5.90;;;6.30;99.90;;;;;;5051047;28;19905;-83
2022/09/24 04:04:15;;;;;;;13.07;5.80;;;6.20;99.90;;;;;;5053081;28;20083;-83
2022/09/24 04:06:40;;;;;;;;;;;6.30;99.90;;;;;;5051588;28;20467;-81
2022/09/24 04:09:06;;;;;;;10.02;4.90;;;6.40;99.90;;;;;;5050996;28;19916;-81
2022/09/24 04:11:34;;;;;;;;;;;6.40;99.90;;;;;;5051699;28;20464;-83
2022/09/24 04:14:00;;;;;;;10.07;5.72;;;6.50;99.90;;;;;;5050720;28;19905;-85
2022/09/24 04:16:25;;;;;;;;;;;6.40;99.90;;;;;;5051791;28;20096;-82
2022/09/24 04:18:51;;;;;;;7.82;5.22;;;6.40;99.90;;;;;;5051543;28;19912;-83
2022/09/24 04:21:16;;;;;;;6.82;4.63;;;6.50;99.90;;;;;;5052356;28;20382;-83
2022/09/24 04:23:42;;;;;;;7.97;4.70;;;6.50;99.90;;;;;;5050639;28;20562;-82
2022/09/24 04:26:08;;;;;;;;;;;6.50;99.90;;;;;;5052390;28;20100;-82
2022/09/24 04:28:34;;;;;;;9.00;5.38;;;6.50;99.90;;;;;;5050554;28;19913;-83
2022/09/24 04:30:59;;;;;;;;;;;6.50;99.90;;;;;;5051498;28;20064;-83
2022/09/24 04:33:25;;;;;;;15.25;5.85;;;6.60;99.90;;;;;;5050228;28;20411;-83
2022/09/24 04:35:51;;;;;;;9.70;4.50;;;6.50;99.90;;;;;;5050300;28;20021;-83
2022/09/24 04:38:19;;;;;;;;;;;6.50;99.90;;;;;;5052198;28;20032;-83
2022/09/24 04:40:46;;;;;;;7.82;4.63;;;6.50;99.90;;;;;;5053439;28;19905;-84
2022/09/24 04:43:12;;;;;;;10.50;5.25;;;6.40;99.90;;;;;;5052760;28;20029;-82
2022/09/24 04:45:37;;;;;;;;;;;6.50;99.90;;;;;;5051292;28;20032;-82
2022/09/24 04:48:04;;;;;;;8.85;6.40;;;6.50;99.90;;;;;;5052159;28;19905;-83
2022/09/24 04:50:33;;;;;;;10.60;6.63;;;6.60;99.90;;;;;;5050805;28;20127;-83
2022/09/24 04:53:00;;;;;;;8.65;5.88;;;6.70;99.90;;;;;;5050493;28;20021;-83
2022/09/24 04:55:26;;;;;;;8.95;5.38;;;6.80;99.90;;;;;;5050798;28;20032;-83
2022/09/24 04:57:57;;;;;;;9.45;4.80;;;6.90;99.90;;;;;;5050084;28;20029;-79
2022/09/24 05:00:24;;;;;;;6.30;4.28;;;6.90;99.90;;;;;;5051282;28;20082;-82
2022/09/24 05:02:58;;;;;;;10.15;5.13;;;7.00;99.90;;;;;;5049788;28;20032;-83
2022/09/24 05:05:24;;;;;;;9.15;5.72;;;7.10;99.90;;;;;;5050485;28;20118;-83
2022/09/24 05:07:50;;;;;;;;;;;7.10;99.90;;;;;;5050387;28;20040;-83
2022/09/24 05:10:15;;;;;;;12.98;5.97;;;7.00;99.90;;;;;;5049750;28;19934;-82
2022/09/24 05:12:41;;;;;;;;;;;7.00;99.90;;;;;;5050650;28;20029;-81
2022/09/24 05:15:07;;;;;;;9.38;5.13;;;7.00;99.90;;;;;;5049766;28;19908;-83
2022/09/24 05:17:36;;;;;;;;;;;7.00;99.90;;;;;;5050594;28;20405;-83
2022/09/24 05:20:02;;;;;;;10.98;6.10;;;7.00;99.90;;;;;;5051294;28;19904;-84
2022/09/24 05:22:28;;;;;;;;;;;7.10;99.90;;;;;;5051465;28;20029;-83
2022/09/24 05:24:54;;;;;;;14.97;7.70;;;7.20;99.90;;;;;;5049704;28;19908;-83
2022/09/24 05:27:23;;;;;;;;;;;7.20;99.90;;;;;;5050204;28;20017;-84
2022/09/24 05:29:49;;;;;;;18.15;8.57;;;7.30;99.90;;;;;;5049883;28;19959;-83
2022/09/24 05:32:17;;;;;;;15.35;7.45;;;7.40;99.90;;;;;;5050278;28;20071;-83
2022/09/24 05:34:44;;;;;;;9.88;6.50;;;7.60;99.90;;;;;;5051373;28;20090;-83
2022/09/24 05:37:10;;;;;;;9.13;6.13;;;7.80;99.90;;;;;;5050111;28;20079;-84
2022/09/24 05:39:36;;;;;;;12.98;6.00;;;8.00;99.90;;;;;;5050001;28;20765;-84
2022/09/24 05:42:04;;;;;;;;;;;8.30;99.90;;;;;;5049997;28;20029;-82
2022/09/24 05:44:31;;;;;;;5.93;3.88;;;8.50;99.90;;;;;;5050903;28;20297;-84
2022/09/24 05:46:57;;;;;;;9.57;4.20;;;8.80;99.90;;;;;;5051373;28;20052;-83
2022/09/24 05:49:23;;;;;;;7.35;4.15;;;9.00;99.90;;;;;;5051150;28;20393;-83
2022/09/24 05:51:49;;;;;;;;;;;9.10;99.90;;;;;;5047949;28;20528;-84
2022/09/24 05:54:15;;;;;;;7.15;4.57;;;9.40;99.90;;;;;;5048526;28;19947;-83
2022/09/24 05:56:41;;;;;;;9.98;5.75;;;9.50;99.90;;;;;;5049388;28;20462;-82
2022/09/24 05:59:07;;;;;;;13.52;6.18;;;9.80;99.90;;;;;;5050928;28;20052;-84
2022/09/24 06:01:33;;;;;;;;;;;10.00;99.90;;;;;;5049814;28;20413;-84
2022/09/24 06:03:58;;;;;;;8.45;5.57;;;10.20;99.90;;;;;;5050908;28;19943;-84
2022/09/24 06:06:25;;;;;;;;;;;10.50;99.90;;;;;;5050339;28;20021;-84
2022/09/24 06:08:51;;;;;;;10.07;5.57;;;10.80;99.90;;;;;;5048887;28;19921;-83
2022/09/24 06:11:17;;;;;;;;;;;11.10;99.90;;;;;;5050574;28;20075;-84
2022/09/24 06:13:42;;;;;;;6.97;5.00;;;11.40;99.90;;;;;;5049745;28;19917;-85
2022/09/24 06:16:09;;;;;;;;;;;11.70;99.90;;;;;;5050353;28;20063;-84
2022/09/24 06:18:38;;;;;;;9.05;5.95;;;11.80;99.90;;;;;;5051278;28;19953;-84
2022/09/24 06:21:09;;;;;;;15.77;8.43;;;12.10;99.90;;;;;;5049368;28;20085;-84
2022/09/24 06:23:36;;;;;;;11.30;5.72;;;12.60;99.90;;;;;;5049208;28;20036;-84
2022/09/24 06:26:03;;;;;;;9.93;5.10;;;13.40;99.90;;;;;;5049446;28;20114;-85
2022/09/24 06:28:29;;;;;;;7.25;4.32;;;14.10;99.90;;;;;;5049660;28;20025;-86
2022/09/24 06:30:58;;;;;;;13.07;5.93;;;15.00;99.90;;;;;;5057622;28;20040;-85
2022/09/24 06:33:23;;;;;;;7.50;4.88;;;15.90;99.90;;;;;;5059311;28;20025;-85
2022/09/24 06:35:49;;;;;;;10.35;6.93;;;16.50;99.90;;;;;;5050158;28;20027;-85
2022/09/24 06:38:16;;;;;;;13.02;8.05;;;17.20;99.90;;;;;;5050443;28;20025;-85
2022/09/24 06:40:49;;;;;;;10.68;7.38;;;17.60;99.90;;;;;;5049889;28;20025;-86
2022/09/24 06:43:16;;;;;;;11.32;6.30;;;18.00;99.90;;;;;;5050634;28;20029;-86
2022/09/24 06:45:43;;;;;;;8.88;5.82;;;18.60;99.90;;;;;;5050219;28;20025;-84
2022/09/24 06:48:11;;;;;;;8.27;5.82;;;18.90;99.20;;;;;;5051693;28;20026;-86
2022/09/24 06:50:40;;;;;;;7.63;4.55;;;19.30;98.30;;;;;;5050699;28;20079;-86
2022/09/24 06:53:07;;;;;;;9.85;5.68;;;19.40;97.80;;;;;;5050878;28;20024;-86
2022/09/24 06:55:33;;;;;;;7.53;5.28;;;19.60;97.50;;;;;;5050605;28;20044;-87
2022/09/24 06:58:03;;;;;;;10.02;4.90;;;19.80;96.70;;;;;;5049959;28;20018;-86
2022/09/24 07:00:29;;;;;;;12.63;5.40;;;19.80;96.30;;;;;;5050059;28;20086;-86
2022/09/24 07:02:55;;;;;;;12.70;6.95;;;20.00;95.00;;;;;;5038291;28;20107;-86
2022/09/24 07:05:20;;;;;;;8.85;6.20;;;20.30;94.90;;;;;;5049869;28;20119;-86
2022/09/24 07:07:46;;;;;;;11.40;4.88;;;20.40;94.30;;;;;;5051009;28;20029;-86
2022/09/24 07:10:12;;;;;;;7.95;4.78;;;20.20;94.40;;;;;;5054458;28;20043;-86
2022/09/24 07:12:40;;;;;;;7.88;5.30;;;19.90;94.40;;;;;;5053827;28;20044;-87
2022/09/24 07:15:07;;;;;;;7.55;5.25;;;20.10;94.00;;;;;;5053596;28;20075;-86
2022/09/24 07:17:32;;;;;;;8.50;4.90;;;20.10;93.90;;;;;;5053508;28;20036;-86
2022/09/24 07:19:58;;;;;;;7.78;4.40;;;19.70;94.90;;;;;;5053222;28;20131;-87
2022/09/24 07:22:24;;;;;;;8.88;4.50;;;19.40;94.90;;;;;;5054588;28;20115;-86
2022/09/24 07:24:49;;;;;;;7.75;4.57;;;19.10;95.60;;;;;;5054354;28;20021;-86
2022/09/24 07:27:15;;;;;;;9.43;3.65;;;18.80;96.40;;;;;;5053179;28;20035;-86
2022/09/24 07:29:41;;;;;;;4.65;3.60;;;18.70;96.50;;;;;;5053003;28;20230;-86
2022/09/24 07:32:07;;;;;;;5.00;3.58;;;18.80;96.40;;;;;;5053550;28;20091;-86
2022/09/24 07:34:32;;;;;;;8.20;3.85;;;18.70;96.60;;;;;;5052983;28;20075;-84
2022/09/24 07:36:59;;;;;;;4.68;3.63;;;18.40;97.20;;;;;;5053688;28;20029;-86
2022/09/24 07:39:25;;;;;;;5.63;3.88;;;18.20;97.70;;;;;;5053010;28;20028;-85
2022/09/24 07:41:51;;;;;;;9.30;4.55;;;18.00;98.10;;;;;;5052656;28;20029;-86
2022/09/24 07:44:19;;;;;;;9.02;3.90;;;17.80;98.40;;;;;;5052814;28;20025;-86
2022/09/24 07:46:54;;;;;;;8.35;5.18;;;17.50;98.70;;;;;;5053153;28;20025;-86
2022/09/24 07:49:20;;;;;;;8.13;5.78;;;17.40;99.20;;;;;;5053389;28;20483;-85
2022/09/24 07:51:46;;;;;;;11.48;6.18;;;17.30;99.50;;;;;;5052993;28;20025;-85
2022/09/24 07:54:12;;;;;;;10.05;5.57;;;17.30;99.50;;;;;;5052635;28;20025;-85
2022/09/24 07:56:38;;;;;;;15.32;5.95;;;17.30;99.90;;;;;;5052854;28;20171;-86
2022/09/24 07:59:06;;;;;;;9.88;5.82;;;17.30;99.90;;;;;;5054317;28;20048;-86
2022/09/24 08:01:33;;;;;;;10.27;5.38;;;17.40;99.90;;;;;;5052740;28;20112;-85
2022/09/24 08:03:59;;;;;;;16.33;6.22;;;17.50;99.90;;;;;;5053477;28;20029;-86
2022/09/24 08:06:25;;;;;;;9.93;5.88;;;17.80;99.90;;;;;;5052518;28;20024;-86
2022/09/24 08:08:55;;;;;;;7.43;5.63;;;17.80;99.90;;;;;;5052696;28;20040;-86
2022/09/24 08:11:21;;;;;;;12.27;6.43;;;17.70;99.80;;;;;;5050385;28;20045;-86
2022/09/24 08:13:47;;;;;;;13.90;7.40;;;17.50;99.90;;;;;;5050071;28;20029;-85
2022/09/24 08:16:13;;;;;;;10.30;5.97;;;17.50;99.90;;;;;;5051261;28;20080;-86
2022/09/24 08:18:39;;;;;;;10.23;6.15;;;17.50;99.90;;;;;;5050631;28;20088;-85
2022/09/24 08:21:08;;;;;;;14.63;8.05;;;17.40;99.90;;;;;;5052423;28;20028;-86
2022/09/24 08:23:35;;;;;;;15.73;8.45;;;17.20;99.90;;;;;;5053805;28;20031;-86
2022/09/24 08:26:01;;;;;;;12.45;7.43;;;17.10;99.90;;;;;;5052312;28;20112;-86
2022/09/24 08:28:27;;;;;;;10.02;6.85;;;17.00;99.90;;;;;;5052543;28;20060;-86
2022/09/24 08:31:03;;;;;;;17.83;8.23;;;17.00;99.90;;;;;;5052356;28;20037;-85
2022/09/24 08:33:31;;;;;;;16.15;8.23;;;17.10;99.90;;;;;;5051736;28;20025;-86
2022/09/24 08:36:00;;;;;;;13.63;7.18;;;17.10;99.90;;;;;;5053048;28;20132;-86
2022/09/24 08:38:26;;;;;;;14.52;7.60;;;17.20;99.90;;;;;;5052228;28;20104;-86
2022/09/24 08:41:05;;;;;;;15.45;8.00;;;17.70;99.90;;;;;;5053053;28;20020;-86
2022/09/24 08:43:51;;;;;;;8.85;5.72;;;17.80;99.20;;;;;;5052723;28;20048;-86
2022/09/24 08:49:12;;;;;;;15.75;6.43;;;17.90;98.80;;;;;;5053125;28;20035;-86
2022/09/24 08:51:52;;;;;;;8.07;5.93;;;17.90;99.40;;;;;;5051695;28;20139;-86
2022/09/24 08:54:23;;;;;;;8.98;5.65;;;18.30;98.80;;;;;;5051844;28;20111;-87
2022/09/24 08:56:50;;;;;;;9.00;5.85;;;18.60;98.90;;;;;;5052125;28;20037;-86
2022/09/24 08:59:30;;;;;;;13.95;6.32;;;18.80;98.50;;;;;;5051788;28;20021;-86
2022/09/24 09:02:33;;;;;;;15.30;9.75;;;18.80;98.40;;;;;;5052713;28;20045;-85
2022/09/24 09:05:26;;;;;;;13.57;7.57;;;18.80;97.70;;;;;;5051855;28;20067;-86
2022/09/24 09:08:09;;;;;;;13.13;8.18;;;18.60;97.10;;;;;;5052874;28;20037;-86
2022/09/24 09:10:39;;;;;;;15.93;9.40;;;18.60;97.00;;;;;;5052110;28;20081;-86
2022/09/24 09:13:20;;;;;;;15.10;5.63;;;18.60;96.80;;;;;;5051198;28;20037;-85
2022/09/24 09:16:00;;;;;;;10.90;6.05;;;18.50;96.60;;;;;;5051164;28;20032;-85
2022/09/24 09:18:32;;;;;;;8.30;5.53;;;18.60;95.90;;;;;;5065020;28;20025;-86
2022/09/24 09:21:14;;;;;;;7.53;5.25;;;18.60;94.60;;;;;;5059333;28;20021;-86
2022/09/24 09:23:47;;;;;;;6.38;4.35;;;18.60;94.40;;;;;;5051241;28;20090;-86
2022/09/24 09:26:15;;;;;;;6.93;4.50;;;18.70;94.60;;;;;;5051712;28;20035;-86
2022/09/24 09:28:41;;;;;;;9.85;5.60;;;18.80;95.00;;;;;;5051650;28;20033;-86
2022/09/24 09:31:25;;;;;;;7.18;4.53;;;18.80;95.10;;;;;;5051035;28;20039;-86
2022/09/24 09:34:21;;;;;;;7.68;4.78;;;18.70;94.90;;;;;;5050984;28;20025;-86
2022/09/24 09:36:53;;;;;;;6.78;3.72;;;18.70;94.20;;;;;;5050771;28;20029;-86
2022/09/24 09:39:37;;;;;;;4.97;2.53;;;18.70;94.30;;;;;;5051056;28;20021;-86
2022/09/24 09:42:25;;;;;;;8.27;3.50;;;18.70;91.10;;;;;;5051020;28;20208;-86
2022/09/24 09:44:51;;;;;;;6.10;2.90;;;18.90;90.00;;;;;;5051388;28;20504;-86
2022/09/24 09:47:28;;;;;;;6.28;3.67;;;19.00;88.20;;;;;;5050911;28;20492;-86
2022/09/24 09:49:56;;;;;;;7.63;5.78;;;18.90;88.10;;;;;;5050645;28;20045;-85
2022/09/24 09:52:27;;;;;;;7.63;4.13;;;18.90;90.40;;;;;;5051518;28;20497;-86
2022/09/24 09:54:53;;;;;;;5.78;3.55;;;19.20;87.10;;;;;;5050846;28;20041;-86
2022/09/24 09:57:23;;;;;;;7.57;3.65;;;20.00;88.10;;;;;;5050976;28;20031;-87
2022/09/24 09:59:52;;;;;;;8.95;2.95;;;21.20;85.80;;;;;;5049649;28;20036;-86
2022/09/24 10:02:25;;;;;;;11.95;9.98;;;21.70;80.70;;;;;;5050511;28;20028;-87
2022/09/24 10:04:54;;;;;;;275.17;218.45;;;22.40;80.80;;;;;;5050609;28;20122;-87
2022/09/24 10:07:20;;;;;;;9.88;6.90;;;23.00;73.50;;;;;;5053566;28;20512;-87
2022/09/24 10:09:56;;;;;;;6.30;3.50;;;23.20;66.40;;;;;;5052539;28;20037;-87
2022/09/24 10:12:23;;;;;;;4.55;2.67;;;23.30;68.60;;;;;;5050900;28;20025;-87
2022/09/24 10:15:18;;;;;;;3.92;2.35;;;23.60;69.20;;;;;;5050798;28;20031;-87
2022/09/24 10:17:47;;;;;;;3.00;2.08;;;24.00;66.50;;;;;;5050933;28;20067;-87
2022/09/24 10:20:17;;;;;;;4.32;2.35;;;23.80;63.20;;;;;;5050376;28;20036;-86
2022/09/24 10:22:49;;;;;;;2.92;2.03;;;23.60;62.50;;;;;;5051933;28;20541;-87
2022/09/24 10:25:25;;;;;;;5.75;1.90;;;23.30;64.80;;;;;;5050778;28;20029;-86
2022/09/24 10:30:56;;;;;;;6.30;2.40;;;22.40;65.40;;;;;;5040526;28;20413;-86
2022/09/24 10:33:23;;;;;;;8.85;6.78;;;21.60;66.30;;;;;;5050685;28;20517;-86
2022/09/24 10:35:49;;;;;;;10.13;5.25;;;21.20;67.50;;;;;;5050537;28;20115;-86
2022/09/24 10:38:20;;;;;;;4.75;3.70;;;20.90;69.70;;;;;;5049674;28;20119;-86
2022/09/24 10:40:46;;;;;;;6.60;4.07;;;20.60;71.70;;;;;;5047665;28;20520;-86
2022/09/24 10:43:30;;;;;;;6.72;3.20;;;20.10;72.60;;;;;;5052468;28;20053;-86
2022/09/24 10:46:20;;;;;;;7.50;4.28;;;19.80;73.90;;;;;;5054450;28;20032;-86
2022/09/24 10:49:21;;;;;;;16.35;8.13;;;19.60;77.10;;;;;;5055434;28;20037;-86
2022/09/24 10:51:59;;;;;;;11.85;4.55;;;19.60;74.50;;;;;;5053783;28;20054;-85
2022/09/24 10:54:50;;;;;;;7.85;4.60;;;19.30;77.60;;;;;;5055111;28;20036;-83
2022/09/24 10:57:58;;;;;;;6.75;3.47;;;19.20;79.50;;;;;;5053839;28;20021;-86
2022/09/24 11:00:43;;;;;;;4.22;2.65;;;19.10;78.90;;;;;;4993521;28;20157;-85
2022/09/24 11:03:14;;;;;;;5.10;2.88;;;19.20;80.20;;;;;;5047901;28;20024;-86
2022/09/24 11:06:00;;;;;;;4.80;2.85;;;19.40;77.60;;;;;;5055086;28;20032;-85
2022/09/24 11:08:50;;;;;;;2.95;2.20;;;19.20;75.00;;;;;;5053615;28;20072;-85
2022/09/24 11:11:18;;;;;;;3.65;2.10;;;19.10;74.60;;;;;;5053331;28;20105;-85
2022/09/24 11:14:07;;;;;;;3.92;2.38;;;19.10;76.80;;;;;;5053601;28;20477;-85
2022/09/24 11:16:57;;;;;;;11.38;2.92;;;19.40;77.90;;;;;;5053746;28;20485;-86
2022/09/24 11:20:03;;;;;;;5.78;2.60;;;19.40;76.00;;;;;;5053276;28;20464;-85
2022/09/24 11:22:37;;;;;;;7.03;3.50;;;19.20;77.40;;;;;;5053885;28;20044;-86
2022/09/24 11:25:30;;;;;;;5.45;3.70;;;19.20;79.40;;;;;;5053472;28;20035;-86
2022/09/24 11:28:37;;;;;;;5.72;3.22;;;19.10;78.50;;;;;;5053422;28;20485;-85
2022/09/24 11:31:43;;;;;;;8.13;3.33;;;18.80;79.00;;;;;;5009797;28;20045;-86
2022/09/24 11:34:46;;;;;;;8.30;4.15;;;18.80;79.00;;;;;;5053535;28;20032;-86
2022/09/24 11:37:20;;;;;;;7.90;4.10;;;18.80;80.20;;;;;;5052928;28;20120;-86
2022/09/24 11:39:52;;;;;;;6.75;4.35;;;19.00;82.00;;;;;;5052549;28;20031;-86
2022/09/24 11:42:27;;;;;;;6.65;3.85;;;19.00;79.80;;;;;;5068467;28;20032;-86
2022/09/24 11:45:11;;;;;;;8.32;4.93;;;18.80;80.90;;;;;;5073610;28;20056;-86
2022/09/24 11:47:45;;;;;;;65.40;39.35;;;18.80;81.20;;;;;;5072036;28;20082;-86
2022/09/24 11:50:23;;;;;;;21.77;11.73;;;18.70;82.30;;;;;;5058627;28;20044;-85
2022/09/24 11:53:07;;;;;;;9.57;4.78;;;18.80;83.20;;;;;;5052760;28;20053;-86
2022/09/24 11:55:52;;;;;;;95.05;59.20;;;18.80;81.80;;;;;;5052758;28;20521;-86
2022/09/24 11:58:39;;;;;;;147.82;62.90;;;18.90;80.70;;;;;;5054266;28;20024;-86
2022/09/24 12:01:05;;;;;;;;;;;18.80;80.80;;;;;;5053328;28;20540;-85
2022/09/24 12:03:48;;;;;;;44.00;21.20;;;18.80;82.90;;;;;;5052914;28;20391;-86
2022/09/24 12:06:20;;;;;;;9.25;4.80;;;18.90;82.60;;;;;;5069096;28;20085;-86
2022/09/24 12:08:53;;;;;;;6.30;3.67;;;19.10;83.20;;;;;;5067228;28;20021;-86
2022/09/24 12:11:32;;;;;;;8.32;4.85;;;19.20;82.10;;;;;;5072453;28;20079;-86
2022/09/24 12:14:17;;;;;;;12.20;4.38;;;19.50;80.90;;;;;;5072748;28;20464;-85
2022/09/24 12:16:44;;;;;;;12.98;7.88;;;19.40;83.60;;;;;;5070723;28;20025;-86
2022/09/24 12:19:21;;;;;;;15.73;9.63;;;19.50;83.10;;;;;;5052078;28;20029;-86
2022/09/24 12:21:50;;;;;;;6.45;3.97;;;19.50;82.90;;;;;;5052404;28;20486;-85
2022/09/24 12:24:43;;;;;;;11.15;5.25;;;19.40;84.00;;;;;;5052555;28;20033;-86
2022/09/24 12:27:14;;;;;;;7.60;3.13;;;19.30;83.30;;;;;;5032318;28;20065;-87
2022/09/24 12:32:56;;;;;;;3.88;2.10;;;19.20;76.50;;;;;;5034051;28;20055;-86
2022/09/24 12:35:27;;;;;;;3.58;1.80;;;19.10;77.70;;;;;;5052347;28;20032;-86
2022/09/24 12:38:02;;;;;;;6.22;2.65;;;19.10;78.60;;;;;;5052210;28;20433;-85
2022/09/24 12:40:49;;;;;;;9.15;6.20;;;19.20;79.80;;;;;;5051369;28;20025;-85
2022/09/24 12:43:28;;;;;;;4.55;2.60;;;19.10;79.50;;;;;;5050943;28;20021;-85
2022/09/24 12:46:04;;;;;;;7.90;5.03;;;19.20;80.10;;;;;;5051802;28;20060;-86
2022/09/24 12:48:43;;;;;;;8.20;5.07;;;19.00;82.40;;;;;;5051821;28;20029;-86
2022/09/24 12:51:09;;;;;;;8.18;4.97;;;18.90;83.50;;;;;;5051789;28;20033;-84
2022/09/24 12:53:39;;;;;;;8.52;6.07;;;18.80;84.60;;;;;;5052614;28;20362;-85
2022/09/24 12:56:06;;;;;;;6.03;3.30;;;18.80;85.30;;;;;;5050178;28;20033;-83
2022/09/24 12:58:37;;;;;;;7.50;3.80;;;18.60;85.20;;;;;;5051616;28;20073;-85
2022/09/24 13:01:29;;;;;;;4.43;2.05;;;18.60;84.10;;;;;;5051832;28;20036;-84
2022/09/24 13:04:24;;;;;;;12.10;2.28;;;18.60;84.30;;;;;;5042597;28;20409;-85
2022/09/24 13:06:50;;;;;;;5.70;2.97;;;18.60;83.00;;;;;;5048744;28;20040;-85
2022/09/24 13:09:35;;;;;;;3.35;2.15;;;18.70;77.20;;;;;;5050755;28;20481;-84
2022/09/24 13:12:19;;;;;;;7.78;4.47;;;18.70;76.70;;;;;;5050751;28;20118;-85
2022/09/24 13:14:56;;;;;;;3.47;1.75;;;18.70;77.60;;;;;;5052260;28;20051;-85
2022/09/24 13:17:22;;;;;;;3.42;0.93;;;18.60;77.40;;;;;;5051897;28;20021;-86
2022/09/24 13:19:55;;;;;;;6.50;1.38;;;18.70;77.10;;;;;;5051336;28;20508;-85
2022/09/24 13:22:33;;;;;;;5.97;3.67;;;18.80;76.60;;;;;;5050813;28;20035;-85
2022/09/24 13:25:08;;;;;;;3.25;1.83;;;18.80;75.90;;;;;;5050677;28;20398;-85
2022/09/24 13:27:42;;;;;;;3.55;1.50;;;18.80;76.10;;;;;;5051079;28;20090;-86
2022/09/24 13:30:08;;;;;;;8.85;2.33;;;18.80;76.90;;;;;;5050886;28;20063;-85
2022/09/24 13:32:41;;;;;;;3.33;1.30;;;18.80;76.50;;;;;;5051309;28;20025;-85
2022/09/24 13:35:14;;;;;;;4.00;1.65;;;18.80;76.00;;;;;;5050561;28;20037;-85
2022/09/24 13:37:42;;;;;;;2.03;0.90;;;18.80;76.30;;;;;;5050242;28;20032;-86